Main page
METAR-TAF:

METAR-TAF

Airports :

Francisco de Orellana Airport

Puerto Francisco de Orellana, Ecuador

latitude: 00-27-46S, longitude: 076-59-12W, elevation: 254 m

Current weather observation

The report was made 10 hours and 13 minutes ago, at 22:00 UTC
Wind 3 kt from the East/Southeast
Temperature 32°C
Humidity 59%
Pressure 1009 hPa
Visibility 10 km or more
Few clouds at a height of 2300 ft

METAR: SECO 172200Z 11003KT 9999 FEW023 32/23 Q1009 RMK A2982

Time: 03:13 (08:13 UTC)


TAF: missing

Weather observations and forecasts of more than 4000 airports (METAR and TAF reports).

The available stations are represented by yellow and red dots on the map.

Hover mouse over dot to see the name of the station.

Then click to see weather observations and forecasts.

To change the map : click on the green buttons with a black cross to zoom in, on the green button with a dash to zoom out, or on the green arrows for adjacent maps.


METAR-TAF: